createdAt,value
2018-04-14T00:02:00.462Z,24.07
2018-04-14T00:04:27.154Z,23.20
2018-04-14T00:06:53.808Z,24.80
2018-04-14T00:09:20.571Z,19.47
2018-04-14T00:11:47.226Z,23.37
2018-04-14T00:14:13.992Z,24.13
2018-04-14T00:16:40.633Z,21.20
2018-04-14T00:19:07.301Z,20.97
2018-04-14T00:21:33.969Z,20.73
2018-04-14T00:24:00.640Z,18.53
2018-04-14T00:26:27.281Z,20.57
2018-04-14T00:28:53.946Z,19.60
2018-04-14T00:31:20.632Z,11.87
2018-04-14T00:33:47.291Z,7.30
2018-04-14T00:36:13.943Z,6.37
2018-04-14T00:38:40.592Z,6.57
2018-04-14T00:41:07.556Z,6.37
2018-04-14T00:43:34.186Z,5.90
2018-04-14T00:46:01.732Z,6.53
2018-04-14T00:48:28.499Z,5.47
2018-04-14T00:50:55.148Z,5.20
2018-04-14T00:53:27.672Z,7.03
2018-04-14T00:55:54.378Z,7.20
2018-04-14T00:58:21.009Z,7.33
2018-04-14T01:00:47.699Z,6.00
2018-04-14T01:03:14.402Z,7.17
2018-04-14T01:05:41.059Z,8.50
2018-04-14T01:08:07.739Z,6.40
2018-04-14T01:10:34.388Z,5.73
2018-04-14T01:13:01.045Z,6.33
2018-04-14T01:15:27.720Z,7.63
2018-04-14T01:17:54.395Z,5.23
2018-04-14T01:20:21.062Z,4.67
2018-04-14T01:22:47.787Z,4.37
2018-04-14T01:25:14.584Z,4.67
2018-04-14T01:27:41.245Z,4.70
2018-04-14T01:30:07.902Z,5.30
2018-04-14T01:32:34.556Z,4.03
2018-04-14T01:35:01.246Z,4.27
2018-04-14T01:37:27.904Z,3.23
2018-04-14T01:39:54.590Z,4.80
2018-04-14T01:42:21.219Z,7.00
2018-04-14T01:44:47.893Z,4.03
2018-04-14T01:47:14.700Z,4.90
2018-04-14T01:49:41.378Z,4.33
2018-04-14T01:52:08.025Z,6.20
2018-04-14T01:54:34.666Z,4.60
2018-04-14T01:57:01.347Z,5.10
2018-04-14T01:59:28.035Z,3.87
2018-04-14T02:01:54.657Z,4.50
2018-04-14T02:04:21.327Z,6.93
2018-04-14T02:06:47.953Z,5.20
2018-04-14T02:09:15.514Z,5.33
2018-04-14T02:11:42.219Z,4.83
2018-04-14T02:14:08.855Z,4.70
2018-04-14T02:16:35.527Z,3.67
2018-04-14T02:19:02.236Z,3.37
2018-04-14T02:21:28.911Z,5.83
2018-04-14T02:23:55.569Z,3.63
2018-04-14T02:26:22.214Z,3.87
2018-04-14T02:28:48.909Z,3.80
2018-04-14T02:31:15.528Z,5.67
2018-04-14T02:33:42.317Z,4.73
2018-04-14T02:36:08.979Z,3.97
2018-04-14T02:38:35.686Z,2.70
2018-04-14T02:41:02.361Z,3.47
2018-04-14T02:43:29.054Z,3.70
2018-04-14T02:45:55.744Z,3.57
2018-04-14T02:48:22.388Z,3.53
2018-04-14T02:50:49.045Z,4.47
2018-04-14T02:53:15.721Z,3.67
2018-04-14T02:55:42.408Z,4.07
2018-04-14T02:58:09.112Z,4.27
2018-04-14T03:00:35.763Z,3.97
2018-04-14T03:03:02.420Z,4.17
2018-04-14T03:05:29.066Z,5.27
2018-04-14T03:07:55.751Z,3.20
2018-04-14T03:10:22.522Z,2.77
2018-04-14T03:12:49.208Z,3.63
2018-04-14T03:15:15.871Z,3.17
2018-04-14T03:17:42.541Z,5.10
2018-04-14T03:20:09.205Z,4.33
2018-04-14T03:22:35.854Z,2.93
2018-04-14T03:25:02.506Z,3.87
2018-04-14T03:27:29.158Z,4.03
2018-04-14T03:29:55.822Z,3.27
2018-04-14T03:32:22.477Z,5.80
2018-04-14T03:34:49.197Z,7.57
2018-04-14T03:37:15.863Z,3.33
2018-04-14T03:39:42.512Z,7.43
2018-04-14T03:42:09.183Z,6.07
2018-04-14T03:44:35.815Z,5.87
2018-04-14T03:47:02.494Z,4.57
2018-04-14T03:49:29.273Z,2.97
2018-04-14T03:51:55.922Z,4.00
2018-04-14T03:54:22.626Z,5.43
2018-04-14T03:56:49.264Z,5.57
2018-04-14T03:59:15.929Z,7.43
2018-04-14T04:01:42.600Z,5.23
2018-04-14T04:04:09.242Z,5.73
2018-04-14T04:06:35.909Z,4.90
2018-04-14T04:09:02.574Z,6.10
2018-04-14T04:11:29.194Z,7.77
2018-04-14T04:13:55.882Z,5.63
2018-04-14T04:16:22.528Z,7.80
2018-04-14T04:18:54.985Z,4.90
2018-04-14T04:21:27.408Z,4.70
2018-04-14T04:23:59.833Z,6.53
2018-04-14T04:26:26.473Z,5.83
2018-04-14T04:28:53.147Z,4.70
2018-04-14T04:31:19.796Z,7.57
2018-04-14T04:33:46.448Z,7.63
2018-04-14T04:36:13.813Z,7.67
2018-04-14T04:38:40.466Z,7.00
2018-04-14T04:41:07.149Z,7.00
2018-04-14T04:43:33.798Z,8.43
2018-04-14T04:46:00.418Z,8.30
2018-04-14T04:48:27.080Z,7.37
2018-04-14T04:50:54.366Z,6.27
2018-04-14T04:53:21.008Z,8.27
2018-04-14T04:55:47.713Z,6.83
2018-04-14T04:58:14.394Z,6.10
2018-04-14T05:00:41.070Z,5.50
2018-04-14T05:03:07.749Z,7.47
2018-04-14T05:05:34.420Z,7.13
2018-04-14T05:08:01.061Z,7.17
2018-04-14T05:10:27.738Z,6.07
2018-04-14T05:12:54.403Z,6.33
2018-04-14T05:15:21.030Z,5.30
2018-04-14T05:17:47.934Z,6.33
2018-04-14T05:20:14.635Z,5.00
2018-04-14T05:22:41.343Z,5.40
2018-04-14T05:25:07.996Z,7.33
2018-04-14T05:27:34.698Z,7.10
2018-04-14T05:30:01.358Z,6.90
2018-04-14T05:32:28.042Z,5.20
2018-04-14T05:34:54.685Z,7.20
2018-04-14T05:37:21.372Z,8.03
2018-04-14T05:39:48.018Z,6.30
2018-04-14T05:42:14.694Z,7.23
2018-04-14T05:44:41.365Z,9.53
2018-04-14T05:47:08.019Z,5.87
2018-04-14T05:49:38.357Z,5.87
2018-04-14T05:52:05.006Z,9.23
2018-04-14T05:54:31.695Z,8.93
2018-04-14T05:56:58.352Z,5.57
2018-04-14T05:59:25.096Z,10.90
2018-04-14T06:01:51.759Z,5.73
2018-04-14T06:04:18.398Z,10.10
2018-04-14T06:06:45.114Z,7.83
2018-04-14T06:09:11.814Z,6.13
2018-04-14T06:11:38.495Z,5.83
2018-04-14T06:14:05.160Z,6.67
2018-04-14T06:16:31.798Z,6.87
2018-04-14T06:18:58.439Z,5.67
2018-04-14T06:21:25.097Z,7.40
2018-04-14T06:23:51.879Z,3.67
2018-04-14T06:26:18.533Z,4.33
2018-04-14T06:28:45.159Z,5.07
2018-04-14T06:31:11.824Z,5.67
2018-04-14T06:33:38.506Z,5.10
2018-04-14T06:36:05.157Z,3.03
2018-04-14T06:38:31.867Z,3.53
2018-04-14T06:40:58.531Z,3.93
2018-04-14T06:43:25.166Z,4.87
2018-04-14T06:45:51.817Z,3.80
2018-04-14T06:48:18.472Z,3.40
2018-04-14T06:50:45.150Z,6.23
2018-04-14T06:53:11.798Z,3.83
2018-04-14T06:55:38.470Z,3.63
2018-04-14T06:58:05.113Z,2.30
2018-04-14T07:00:31.796Z,3.40
2018-04-14T07:02:58.495Z,3.13
2018-04-14T07:05:25.157Z,2.60
2018-04-14T07:07:51.814Z,3.93
2018-04-14T07:10:18.483Z,3.37
2018-04-14T07:12:45.132Z,3.73
2018-04-14T07:15:11.927Z,3.27
2018-04-14T07:17:38.586Z,3.83
2018-04-14T07:20:05.254Z,4.03
2018-04-14T07:22:31.912Z,3.37
2018-04-14T07:24:58.578Z,2.87
2018-04-14T07:27:25.267Z,4.00
2018-04-14T07:29:51.912Z,3.27
2018-04-14T07:32:18.586Z,3.87
2018-04-14T07:34:45.254Z,3.00
2018-04-14T07:37:11.902Z,4.50
2018-04-14T07:39:38.566Z,4.23
2018-04-14T07:42:05.254Z,1.83
2018-04-14T07:44:31.922Z,3.47
2018-04-14T07:46:58.584Z,2.20
2018-04-14T07:49:25.234Z,4.17
2018-04-14T07:51:51.903Z,2.00
2018-04-14T07:54:18.576Z,3.53
2018-04-14T07:56:45.242Z,2.97
2018-04-14T07:59:11.986Z,3.83
2018-04-14T08:01:38.645Z,2.67
2018-04-14T08:04:05.315Z,2.57
2018-04-14T08:06:31.968Z,3.10
2018-04-14T08:08:58.624Z,2.13
2018-04-14T08:11:25.278Z,3.10
2018-04-14T08:13:51.956Z,3.90
2018-04-14T08:16:18.589Z,4.37
2018-04-14T08:18:45.262Z,2.53
2018-04-14T08:21:11.894Z,3.03
2018-04-14T08:23:38.579Z,2.77
2018-04-14T08:26:05.237Z,2.80
2018-04-14T08:28:31.892Z,3.57
2018-04-14T08:30:58.564Z,2.87
2018-04-14T08:33:25.210Z,3.40
2018-04-14T08:35:51.943Z,3.93
2018-04-14T08:38:18.695Z,3.93
2018-04-14T08:40:45.343Z,3.83
2018-04-14T08:43:12.031Z,6.20
2018-04-14T08:45:38.679Z,2.97
2018-04-14T08:48:05.327Z,3.83
2018-04-14T08:50:31.962Z,2.97
2018-04-14T08:52:58.899Z,3.07
2018-04-14T08:55:25.584Z,4.60
2018-04-14T08:57:52.234Z,4.40
2018-04-14T09:00:18.903Z,4.17
2018-04-14T09:02:45.876Z,4.00
2018-04-14T09:05:12.543Z,3.20
2018-04-14T09:07:39.300Z,4.23
2018-04-14T09:10:05.974Z,3.27
2018-04-14T09:12:32.654Z,4.43
2018-04-14T09:14:59.303Z,4.33
2018-04-14T09:17:26.169Z,5.00
2018-04-14T09:19:52.806Z,3.87
2018-04-14T09:22:19.448Z,3.80
2018-04-14T09:24:46.271Z,4.03
2018-04-14T09:27:12.899Z,3.57
2018-04-14T09:29:39.612Z,3.83
2018-04-14T09:32:06.255Z,3.23
2018-04-14T09:34:32.949Z,4.30
2018-04-14T09:36:59.659Z,3.93
2018-04-14T09:39:26.334Z,5.97
2018-04-14T09:41:52.989Z,5.97
2018-04-14T09:44:19.651Z,5.23
2018-04-14T09:46:46.336Z,3.63
2018-04-14T09:49:13.602Z,5.33
2018-04-14T09:51:40.295Z,4.10
2018-04-14T09:54:06.923Z,3.80
2018-04-14T09:56:33.612Z,3.90
2018-04-14T09:59:00.299Z,5.07
2018-04-14T10:01:27.604Z,4.03
2018-04-14T10:03:54.381Z,4.20
2018-04-14T10:06:21.012Z,3.70
2018-04-14T10:08:47.672Z,5.17
2018-04-14T10:11:14.319Z,4.13
2018-04-14T10:13:40.972Z,4.53
2018-04-14T10:16:07.625Z,2.90
2018-04-14T10:18:34.294Z,2.60
2018-04-14T10:21:00.979Z,3.00
2018-04-14T10:23:27.636Z,4.90
2018-04-14T10:25:55.170Z,3.20
2018-04-14T10:28:21.832Z,4.13
2018-04-14T10:30:48.518Z,3.63
2018-04-14T10:33:15.302Z,3.93
2018-04-14T10:35:41.978Z,2.13
2018-04-14T10:38:08.653Z,3.53
2018-04-14T10:40:35.335Z,5.73
2018-04-14T10:43:02.007Z,4.30
2018-04-14T10:45:28.672Z,4.43
2018-04-14T10:47:55.353Z,5.23
2018-04-14T10:50:22.015Z,5.00
2018-04-14T10:52:48.689Z,5.07
2018-04-14T10:55:15.412Z,6.13
2018-04-14T10:57:42.041Z,4.13
2018-04-14T11:00:08.715Z,4.77
2018-04-14T11:02:35.383Z,7.93
2018-04-14T11:05:02.051Z,4.73
2018-04-14T11:07:28.902Z,6.40
2018-04-14T11:09:56.129Z,5.27
2018-04-14T11:12:22.807Z,4.50
2018-04-14T11:14:49.686Z,5.57
2018-04-14T11:17:16.352Z,4.33
2018-04-14T11:19:43.049Z,4.83
2018-04-14T11:22:09.717Z,4.73
2018-04-14T11:24:36.407Z,4.23
2018-04-14T11:27:04.397Z,6.23
2018-04-14T11:29:31.032Z,5.13
2018-04-14T11:31:57.895Z,4.80
2018-04-14T11:34:26.080Z,5.30
2018-04-14T11:37:06.004Z,4.63
2018-04-14T11:39:32.648Z,4.67
2018-04-14T11:41:59.326Z,3.70
2018-04-14T11:44:25.955Z,5.80
2018-04-14T11:46:52.894Z,7.20
2018-04-14T11:49:19.547Z,6.20
2018-04-14T11:51:46.180Z,4.50
2018-04-14T11:54:12.838Z,5.10
2018-04-14T11:56:39.515Z,8.50
2018-04-14T11:59:06.146Z,5.53
2018-04-14T12:01:32.781Z,4.63
2018-04-14T12:03:59.493Z,5.23
2018-04-14T12:06:26.979Z,5.53
2018-04-14T12:08:53.664Z,6.50
2018-04-14T12:11:20.319Z,5.10
2018-04-14T12:13:47.036Z,6.83
2018-04-14T12:16:13.676Z,4.87
2018-04-14T12:18:40.304Z,6.03
2018-04-14T12:21:06.982Z,3.93
2018-04-14T12:23:33.680Z,4.57
2018-04-14T12:26:01.740Z,4.63
2018-04-14T12:28:29.931Z,5.30
2018-04-14T12:30:56.604Z,4.03
2018-04-14T12:33:23.262Z,7.43
2018-04-14T12:35:50.521Z,4.37
2018-04-14T12:38:17.190Z,4.00
2018-04-14T12:40:43.858Z,3.40
2018-04-14T12:43:10.554Z,4.43
2018-04-14T12:45:37.202Z,4.83
2018-04-14T12:48:03.900Z,4.43
2018-04-14T12:50:30.576Z,3.63
2018-04-14T12:52:57.230Z,4.30
2018-04-14T12:55:25.489Z,3.87
2018-04-14T12:57:52.194Z,4.30
2018-04-14T13:00:18.896Z,6.10
2018-04-14T13:02:45.549Z,3.00
2018-04-14T13:05:12.243Z,4.23
2018-04-14T13:07:38.891Z,4.90
2018-04-14T13:10:05.551Z,3.50
2018-04-14T13:12:32.232Z,2.57
2018-04-14T13:14:59.720Z,3.03
2018-04-14T13:17:26.359Z,5.30
2018-04-14T13:19:53.050Z,6.13
2018-04-14T13:22:19.756Z,4.77
2018-04-14T13:24:46.442Z,3.87
2018-04-14T13:27:13.120Z,5.90
2018-04-14T13:29:39.776Z,4.60
2018-04-14T13:32:06.463Z,5.00
2018-04-14T13:34:33.101Z,6.60
2018-04-14T13:36:59.781Z,8.37
2018-04-14T13:39:26.449Z,6.63
2018-04-14T13:41:53.095Z,6.47
2018-04-14T13:44:19.743Z,6.03
2018-04-14T13:46:46.409Z,9.37
2018-04-14T13:49:13.043Z,5.97
2018-04-14T13:51:39.713Z,8.43
2018-04-14T13:54:06.410Z,6.77
2018-04-14T13:56:33.248Z,5.63
2018-04-14T13:58:59.919Z,5.80
2018-04-14T14:01:26.572Z,6.33
2018-04-14T14:03:53.242Z,7.10
2018-04-14T14:06:19.865Z,7.97
2018-04-14T14:08:46.534Z,7.17
2018-04-14T14:11:13.169Z,10.17
2018-04-14T14:13:39.858Z,8.13
2018-04-14T14:16:06.524Z,7.00
2018-04-14T14:18:33.176Z,8.17
2018-04-14T14:20:59.841Z,11.90
2018-04-14T14:23:26.471Z,11.30
2018-04-14T14:25:53.182Z,10.33
2018-04-14T14:28:19.853Z,12.87
2018-04-14T14:30:46.985Z,13.53
2018-04-14T14:33:13.693Z,16.70
2018-04-14T14:35:40.324Z,12.87
2018-04-14T14:38:07.027Z,15.37
2018-04-14T14:40:33.718Z,11.83
2018-04-14T14:43:00.428Z,11.37
2018-04-14T14:45:27.108Z,15.37
2018-04-14T14:47:53.784Z,14.10
2018-04-14T14:50:26.076Z,9.37
2018-04-14T14:52:52.781Z,14.83
2018-04-14T14:55:19.506Z,15.83
2018-04-14T14:57:46.170Z,13.03
2018-04-14T15:00:12.852Z,18.33
2018-04-14T15:02:39.520Z,14.30
2018-04-14T15:05:06.164Z,15.63
2018-04-14T15:07:32.835Z,10.63
2018-04-14T15:09:59.497Z,13.50
2018-04-14T15:12:26.159Z,14.00
2018-04-14T15:14:52.881Z,18.03
2018-04-14T15:17:19.559Z,18.77
2018-04-14T15:19:46.258Z,16.77
2018-04-14T15:22:12.880Z,19.80
2018-04-14T15:24:39.532Z,20.13
2018-04-14T15:27:06.166Z,15.67
2018-04-14T15:29:32.843Z,17.50
2018-04-14T15:31:59.547Z,16.80
2018-04-14T15:34:26.202Z,17.50
2018-04-14T15:36:52.903Z,21.13
2018-04-14T15:39:19.552Z,20.17
2018-04-14T15:41:46.234Z,19.43
2018-04-14T15:44:12.916Z,19.07
2018-04-14T15:46:39.682Z,16.73
2018-04-14T15:49:06.348Z,23.23
2018-04-14T15:51:33.023Z,20.10
2018-04-14T15:53:59.715Z,20.53
2018-04-14T15:56:26.358Z,22.43
2018-04-14T15:58:53.062Z,19.43
2018-04-14T16:01:19.744Z,21.67
2018-04-14T16:03:46.437Z,26.87
2018-04-14T16:06:13.137Z,18.27
2018-04-14T16:08:39.833Z,22.13
2018-04-14T16:11:06.527Z,21.57
2018-04-14T16:13:33.192Z,17.67
2018-04-14T16:15:59.897Z,20.40
2018-04-14T16:18:26.722Z,19.73
2018-04-14T16:20:53.387Z,19.40
2018-04-14T16:23:20.084Z,19.20
2018-04-14T16:25:46.729Z,18.27
2018-04-14T16:28:13.441Z,21.97
2018-04-14T16:30:40.100Z,22.73
2018-04-14T16:33:06.746Z,17.10
2018-04-14T16:35:33.421Z,22.27
2018-04-14T16:38:00.089Z,22.57
2018-04-14T16:40:26.744Z,16.97
2018-04-14T16:42:53.408Z,21.00
2018-04-14T16:45:20.089Z,20.57
2018-04-14T16:47:46.760Z,21.67
2018-04-14T16:50:13.498Z,18.47
2018-04-14T16:52:40.146Z,18.70
2018-04-14T16:55:06.874Z,22.63
2018-04-14T16:57:33.543Z,19.40
2018-04-14T17:00:00.221Z,20.67
2018-04-14T17:02:26.882Z,21.47
2018-04-14T17:04:53.564Z,17.80
2018-04-14T17:07:20.248Z,22.23
2018-04-14T17:09:46.919Z,24.10
2018-04-14T17:12:13.583Z,22.03
2018-04-14T17:14:40.243Z,16.07
2018-04-14T17:17:06.922Z,17.83
2018-04-14T17:19:33.575Z,22.00
2018-04-14T17:22:00.215Z,16.77
2018-04-14T17:24:26.913Z,21.73
2018-04-14T17:26:53.624Z,18.57
2018-04-14T17:29:20.289Z,19.13
2018-04-14T17:31:46.970Z,18.53
2018-04-14T17:34:13.637Z,20.77
2018-04-14T17:36:40.325Z,24.37
2018-04-14T17:39:07.000Z,18.83
2018-04-14T17:41:33.682Z,18.60
2018-04-14T17:44:00.356Z,19.83
2018-04-14T17:46:27.039Z,15.57
2018-04-14T17:48:53.730Z,17.80
2018-04-14T17:51:20.397Z,19.17
2018-04-14T17:53:47.083Z,22.33
2018-04-14T17:56:13.773Z,19.37
2018-04-14T17:58:40.397Z,21.90
2018-04-14T18:01:07.270Z,19.40
2018-04-14T18:03:33.915Z,21.00
2018-04-14T18:06:00.595Z,24.13
2018-04-14T18:08:27.268Z,23.33
2018-04-14T18:10:54.037Z,19.77
2018-04-14T18:13:20.702Z,26.10
2018-04-14T18:15:47.524Z,17.87
2018-04-14T18:18:14.173Z,27.13
2018-04-14T18:20:41.572Z,27.23
2018-04-14T18:23:08.254Z,18.70
2018-04-14T18:25:34.905Z,17.13
2018-04-14T18:28:01.578Z,22.03
2018-04-14T18:30:28.235Z,25.50
2018-04-14T18:32:54.899Z,14.93
2018-04-14T18:35:21.586Z,15.10
2018-04-14T18:37:48.242Z,19.03
2018-04-14T18:40:14.912Z,19.50
2018-04-14T18:42:41.619Z,17.97
2018-04-14T18:45:08.257Z,23.33
2018-04-14T18:47:36.235Z,20.07
2018-04-14T18:50:03.751Z,25.17
2018-04-14T18:52:30.420Z,20.83
2018-04-14T18:54:57.098Z,18.20
2018-04-14T18:57:23.759Z,21.90
2018-04-14T18:59:50.448Z,20.80
2018-04-14T19:02:17.182Z,21.33
2018-04-14T19:04:43.871Z,19.30
2018-04-14T19:07:10.532Z,17.07
2018-04-14T19:09:37.225Z,22.73
2018-04-14T19:12:03.887Z,28.07
2018-04-14T19:14:30.595Z,22.27
2018-04-14T19:16:57.237Z,19.37
2018-04-14T19:19:23.997Z,17.63
2018-04-14T19:21:50.640Z,17.03
2018-04-14T19:24:17.311Z,22.93
2018-04-14T19:26:43.998Z,20.63
2018-04-14T19:29:10.677Z,23.53
2018-04-14T19:31:37.410Z,23.37
2018-04-14T19:34:04.105Z,21.20
2018-04-14T19:36:30.813Z,24.43
2018-04-14T19:38:57.691Z,19.17
2018-04-14T19:41:24.363Z,21.67
2018-04-14T19:43:51.043Z,21.47
2018-04-14T19:46:17.754Z,18.13
2018-04-14T19:48:44.405Z,20.27
2018-04-14T19:51:11.084Z,22.57
2018-04-14T19:53:37.771Z,20.07
2018-04-14T19:56:04.462Z,22.33
2018-04-14T19:58:31.159Z,21.20
2018-04-14T20:00:57.855Z,16.57
2018-04-14T20:03:24.500Z,21.33
2018-04-14T20:05:51.187Z,17.90
2018-04-14T20:08:17.876Z,21.53
2018-04-14T20:10:44.605Z,17.73
2018-04-14T20:13:11.285Z,20.00
2018-04-14T20:15:37.925Z,14.93
2018-04-14T20:18:04.619Z,20.50
2018-04-14T20:20:31.296Z,17.07
2018-04-14T20:22:57.954Z,18.77
2018-04-14T20:25:24.596Z,17.00
2018-04-14T20:27:51.284Z,18.57
2018-04-14T20:30:17.942Z,17.70
2018-04-14T20:32:44.659Z,19.53
2018-04-14T20:35:11.291Z,16.03
2018-04-14T20:37:37.973Z,16.20
2018-04-14T20:40:04.661Z,18.43
2018-04-14T20:42:31.299Z,16.63
2018-04-14T20:44:57.997Z,26.33
2018-04-14T20:47:24.690Z,19.70
2018-04-14T20:49:51.480Z,15.97
2018-04-14T20:52:18.127Z,18.43
2018-04-14T20:54:44.926Z,17.50
2018-04-14T20:57:11.628Z,22.20
2018-04-14T20:59:38.307Z,18.50
2018-04-14T21:02:04.957Z,22.57
2018-04-14T21:04:31.639Z,18.47
2018-04-14T21:06:58.316Z,17.43
2018-04-14T21:09:25.027Z,16.10
2018-04-14T21:11:51.696Z,17.53
2018-04-14T21:14:18.406Z,19.13
2018-04-14T21:16:45.050Z,16.73
2018-04-14T21:19:11.898Z,19.30
2018-04-14T21:21:38.564Z,20.77
2018-04-14T21:24:05.211Z,17.33
2018-04-14T21:26:31.863Z,21.07
2018-04-14T21:28:58.546Z,21.27
2018-04-14T21:31:25.303Z,20.27
2018-04-14T21:33:51.945Z,21.20
2018-04-14T21:36:18.634Z,20.87
2018-04-14T21:38:45.307Z,15.40
2018-04-14T21:41:12.030Z,19.27
2018-04-14T21:43:38.711Z,19.70
2018-04-14T21:46:05.394Z,21.13
2018-04-14T21:48:32.079Z,16.27
2018-04-14T21:50:58.729Z,17.00
2018-04-14T21:53:25.416Z,17.20
2018-04-14T21:55:52.077Z,19.97
2018-04-14T21:58:20.452Z,16.20
2018-04-14T22:00:52.725Z,17.77
2018-04-14T22:03:19.487Z,18.03
2018-04-14T22:05:46.153Z,18.90
2018-04-14T22:08:14.041Z,19.00
2018-04-14T22:10:43.426Z,19.37
2018-04-14T22:13:10.169Z,19.53
2018-04-14T22:15:36.816Z,20.63
2018-04-14T22:18:03.460Z,19.30
2018-04-14T22:20:30.133Z,17.07
2018-04-14T22:22:56.766Z,18.43
2018-04-14T22:25:28.278Z,18.57
2018-04-14T22:27:58.728Z,18.47
2018-04-14T22:30:25.668Z,16.13
2018-04-14T22:32:52.322Z,19.07
2018-04-14T22:35:19.006Z,24.97
2018-04-14T22:40:24.756Z,20.07
2018-04-14T22:42:55.361Z,20.27
2018-04-14T22:45:24.358Z,16.83
2018-04-14T22:47:52.672Z,15.03
2018-04-14T22:50:21.818Z,18.30
2018-04-14T22:52:50.717Z,20.33
2018-04-14T22:55:17.913Z,21.53
2018-04-14T22:57:50.117Z,18.07
2018-04-14T23:00:19.179Z,19.83
2018-04-14T23:02:48.043Z,16.70
2018-04-14T23:05:16.186Z,16.77
2018-04-14T23:07:44.742Z,16.23
2018-04-14T23:10:15.174Z,12.47
2018-04-14T23:12:45.825Z,18.63
2018-04-14T23:15:15.247Z,15.27
2018-04-14T23:17:47.647Z,19.10
2018-04-14T23:20:17.676Z,17.33
2018-04-14T23:22:47.256Z,19.47
2018-04-14T23:25:17.592Z,12.97
2018-04-14T23:27:47.030Z,16.47
2018-04-14T23:30:16.717Z,16.90
2018-04-14T23:32:44.484Z,11.43
2018-04-14T23:35:14.783Z,15.63
2018-04-14T23:37:45.104Z,13.17
2018-04-14T23:40:13.213Z,12.43
2018-04-14T23:42:40.139Z,14.93
2018-04-14T23:45:10.105Z,14.47
2018-04-14T23:47:39.200Z,14.37
2018-04-14T23:50:06.507Z,18.03
2018-04-14T23:52:33.356Z,12.87
2018-04-14T23:55:03.136Z,15.27
2018-04-14T23:57:31.369Z,15.37
2018-04-14T23:59:58.991Z,14.53
